Marble Falls, TX

3:27 PM CDT on August 31, 2015 (GMT -0500)
Water Treatment Plant | | Change Station
CLOSE
Current Station
Personal Weather Station
Location: Meadowlakes, TX
Elevation: 800 ft
Nearby Weather Stations

Elev 800 ft 30.56 °N, 98.29 °W | Updated 9 seconds ago

Mostly Cloudy
Mostly Cloudy
93.7 °F
Feels Like 97 °F
N
2.0
Wind Variable Wind from SE
Gusts 6.0 mph

Today
High -- | Low -- °F
--% Chance of Precip.
Yesterday
High -- | Low -- °F
Precip. -- in
7:09 AM 7:57 PM
Waning Gibbous, 94% visible
Pressure 30.00 in
Visibility 10.0 miles
Clouds Scattered Clouds 6500 ft
Mostly Cloudy 8000 ft
Heat Index 97 °F
Dew Point 67 °F
Humidity 41%
Rainfall in
Snow Depth Not available.
UV 5 out of 12
Pollen 6.30 out of 12
Air Quality Not available.
Flu Activity Not available.
METAR KDZB 312015Z AUTO 11006KT 10SM SCT065 BKN080 35/16 A3000 RMK AO2 LTG DSNT SE T03470161
Pressure 30.00 in
Visibility 10.0 miles
Clouds Scattered Clouds 6500 ft
Mostly Cloudy 8000 ft
Heat Index 97 °F
Dew Point 67 °F
Humidity 41%
Rainfall in
Snow Depth Not available.
UV 5 out of 12
Pollen 6.30 out of 12
Air Quality Not available.
Flu Activity Not available.
METAR KDZB 312015Z AUTO 11006KT 10SM SCT065 BKN080 35/16 A3000 RMK AO2 LTG DSNT SE T03470161

10-Day Weather Forecast

×

Almanac

Astronomy

Aug. 31, 2015 Rise Set
Actual Time
Civil Twilight
Nautical Twilight
Astronomical Twilight
Moon
Length of Visible Light
Length of Day
Tomorrow will be .
, % of the Moon is Illuminated

Today's Extremes

State Highs State Lows

Community

WunderPhotos

Upload Photos

1,851,352 photos uploaded!

WunderBlogs® & News

Nearby

Air Quality

  Air Quality AQ Index Pollutant
Not available.

Snow Depth

Station Depth Elevation

Earthquake Activity

City Distance Mag. Time & Date
Minimum magnitude displayed is 2.5.

Coastal Water Temperatures

Place Temperature

Stations

Nearby Weather Stations

Station Location Temp. Windchill Dew Point Humidity Wind Precip. Elev Updated Type